sensor_id;sensor_type;location;lat;lon;timestamp;temperature;humidity
15364;DHT22;7781;49.690;6.472;2024-02-28T00:01:10;3.80;99.90
15364;DHT22;7781;49.690;6.472;2024-02-28T00:03:40;3.90;99.90
15364;DHT22;7781;49.690;6.472;2024-02-28T00:06:08;3.90;99.90
15364;DHT22;7781;49.690;6.472;2024-02-28T00:08:37;4.00;99.90
15364;DHT22;7781;49.690;6.472;2024-02-28T00:11:06;4.10;99.90
15364;DHT22;7781;49.690;6.472;2024-02-28T00:13:35;4.10;99.90
15364;DHT22;7781;49.690;6.472;2024-02-28T00:16:06;4.10;99.90
15364;DHT22;7781;49.690;6.472;2024-02-28T00:18:34;4.10;99.90
15364;DHT22;7781;49.690;6.472;2024-02-28T00:21:05;4.10;99.90
15364;DHT22;7781;49.690;6.472;2024-02-28T00:23:33;4.10;99.90
15364;DHT22;7781;49.690;6.472;2024-02-28T00:26:02;4.20;99.90
15364;DHT22;7781;49.690;6.472;2024-02-28T00:28:33;4.30;99.90
15364;DHT22;7781;49.690;6.472;2024-02-28T00:31:03;4.30;99.90
15364;DHT22;7781;49.690;6.472;2024-02-28T00:33:32;4.30;99.90
15364;DHT22;7781;49.690;6.472;2024-02-28T00:36:06;4.40;99.90
15364;DHT22;7781;49.690;6.472;2024-02-28T00:38:35;4.40;99.90
15364;DHT22;7781;49.690;6.472;2024-02-28T00:41:04;4.40;99.90
15364;DHT22;7781;49.690;6.472;2024-02-28T00:43:33;4.40;99.90
15364;DHT22;7781;49.690;6.472;2024-02-28T00:46:03;4.40;99.90
15364;DHT22;7781;49.690;6.472;2024-02-28T00:48:35;4.40;99.90
15364;DHT22;7781;49.690;6.472;2024-02-28T00:51:05;4.50;99.90
15364;DHT22;7781;49.690;6.472;2024-02-28T00:53:36;4.60;99.90
15364;DHT22;7781;49.690;6.472;2024-02-28T00:56:05;4.60;99.90
15364;DHT22;7781;49.690;6.472;2024-02-28T00:58:35;4.70;99.90
15364;DHT22;7781;49.690;6.472;2024-02-28T01:01:04;4.80;99.90
15364;DHT22;7781;49.690;6.472;2024-02-28T01:03:33;4.70;99.90
15364;DHT22;7781;49.690;6.472;2024-02-28T01:06:05;4.70;99.90
15364;DHT22;7781;49.690;6.472;2024-02-28T01:08:34;4.80;99.90
15364;DHT22;7781;49.690;6.472;2024-02-28T01:11:02;4.80;99.90
15364;DHT22;7781;49.690;6.472;2024-02-28T01:13:32;4.80;99.90
15364;DHT22;7781;49.690;6.472;2024-02-28T01:16:01;4.80;99.90
15364;DHT22;7781;49.690;6.472;2024-02-28T01:18:30;4.90;99.90
15364;DHT22;7781;49.690;6.472;2024-02-28T01:21:00;4.90;99.90
15364;DHT22;7781;49.690;6.472;2024-02-28T01:23:31;4.80;99.90
15364;DHT22;7781;49.690;6.472;2024-02-28T01:26:00;4.80;99.90
15364;DHT22;7781;49.690;6.472;2024-02-28T01:28:30;4.90;99.90
15364;DHT22;7781;49.690;6.472;2024-02-28T01:30:58;4.80;99.90
15364;DHT22;7781;49.690;6.472;2024-02-28T01:33:31;4.90;99.90
15364;DHT22;7781;49.690;6.472;2024-02-28T01:35:59;4.80;99.90
15364;DHT22;7781;49.690;6.472;2024-02-28T01:38:28;4.80;99.90
15364;DHT22;7781;49.690;6.472;2024-02-28T01:41:00;4.80;99.90
15364;DHT22;7781;49.690;6.472;2024-02-28T01:43:29;4.80;99.90
15364;DHT22;7781;49.690;6.472;2024-02-28T01:46:05;4.80;99.90
15364;DHT22;7781;49.690;6.472;2024-02-28T01:48:37;4.80;99.90
15364;DHT22;7781;49.690;6.472;2024-02-28T01:51:05;4.80;99.90
15364;DHT22;7781;49.690;6.472;2024-02-28T01:53:34;4.90;99.90
15364;DHT22;7781;49.690;6.472;2024-02-28T01:56:06;4.90;99.90
15364;DHT22;7781;49.690;6.472;2024-02-28T01:58:36;4.90;99.90
15364;DHT22;7781;49.690;6.472;2024-02-28T02:01:06;4.90;99.90
15364;DHT22;7781;49.690;6.472;2024-02-28T02:03:36;4.90;99.90
15364;DHT22;7781;49.690;6.472;2024-02-28T02:06:05;4.80;99.90
15364;DHT22;7781;49.690;6.472;2024-02-28T02:08:34;4.80;99.90
15364;DHT22;7781;49.690;6.472;2024-02-28T02:11:05;4.80;99.90
15364;DHT22;7781;49.690;6.472;2024-02-28T02:13:34;4.70;99.90
15364;DHT22;7781;49.690;6.472;2024-02-28T02:16:04;4.70;99.90
15364;DHT22;7781;49.690;6.472;2024-02-28T02:18:33;4.80;99.90
15364;DHT22;7781;49.690;6.472;2024-02-28T02:21:05;4.80;99.90
15364;DHT22;7781;49.690;6.472;2024-02-28T02:23:37;4.80;99.90
15364;DHT22;7781;49.690;6.472;2024-02-28T02:26:09;4.80;99.90
15364;DHT22;7781;49.690;6.472;2024-02-28T02:28:39;4.70;99.90
15364;DHT22;7781;49.690;6.472;2024-02-28T02:31:07;4.80;99.90
15364;DHT22;7781;49.690;6.472;2024-02-28T02:33:36;4.70;99.90
15364;DHT22;7781;49.690;6.472;2024-02-28T02:36:05;4.70;99.90
15364;DHT22;7781;49.690;6.472;2024-02-28T02:38:35;4.70;99.90
15364;DHT22;7781;49.690;6.472;2024-02-28T02:41:04;4.70;99.90
15364;DHT22;7781;49.690;6.472;2024-02-28T02:43:33;4.70;99.90
15364;DHT22;7781;49.690;6.472;2024-02-28T02:46:02;4.70;99.90
15364;DHT22;7781;49.690;6.472;2024-02-28T02:48:30;4.70;99.90
15364;DHT22;7781;49.690;6.472;2024-02-28T02:51:00;4.70;99.90
15364;DHT22;7781;49.690;6.472;2024-02-28T02:53:29;4.70;99.90
15364;DHT22;7781;49.690;6.472;2024-02-28T02:56:00;4.70;99.90
15364;DHT22;7781;49.690;6.472;2024-02-28T02:58:31;4.70;99.90
15364;DHT22;7781;49.690;6.472;2024-02-28T03:01:00;4.70;99.90
15364;DHT22;7781;49.690;6.472;2024-02-28T03:03:31;4.70;99.90
15364;DHT22;7781;49.690;6.472;2024-02-28T03:05:59;4.70;99.90
15364;DHT22;7781;49.690;6.472;2024-02-28T03:08:28;4.70;99.90
15364;DHT22;7781;49.690;6.472;2024-02-28T03:10:57;4.60;99.90
15364;DHT22;7781;49.690;6.472;2024-02-28T03:13:30;4.70;99.90
15364;DHT22;7781;49.690;6.472;2024-02-28T03:15:59;4.70;99.90
15364;DHT22;7781;49.690;6.472;2024-02-28T03:18:28;4.80;99.90
15364;DHT22;7781;49.690;6.472;2024-02-28T03:20:57;4.80;99.90
15364;DHT22;7781;49.690;6.472;2024-02-28T03:23:25;4.60;99.90
15364;DHT22;7781;49.690;6.472;2024-02-28T03:25:54;4.60;99.90
15364;DHT22;7781;49.690;6.472;2024-02-28T03:28:23;4.70;99.90
15364;DHT22;7781;49.690;6.472;2024-02-28T03:30:56;4.70;99.90
15364;DHT22;7781;49.690;6.472;2024-02-28T03:33:25;4.70;99.90
15364;DHT22;7781;49.690;6.472;2024-02-28T03:35:53;4.70;99.90
15364;DHT22;7781;49.690;6.472;2024-02-28T03:38:23;4.70;99.90
15364;DHT22;7781;49.690;6.472;2024-02-28T03:40:51;4.80;99.90
15364;DHT22;7781;49.690;6.472;2024-02-28T03:43:20;4.70;99.90
15364;DHT22;7781;49.690;6.472;2024-02-28T03:45:49;4.60;99.90
15364;DHT22;7781;49.690;6.472;2024-02-28T03:48:21;4.60;99.90
15364;DHT22;7781;49.690;6.472;2024-02-28T03:50:50;4.60;99.90
15364;DHT22;7781;49.690;6.472;2024-02-28T03:53:20;4.60;99.90
15364;DHT22;7781;49.690;6.472;2024-02-28T03:55:50;4.60;99.90
15364;DHT22;7781;49.690;6.472;2024-02-28T03:58:19;4.60;99.90
15364;DHT22;7781;49.690;6.472;2024-02-28T04:00:47;4.60;99.90
15364;DHT22;7781;49.690;6.472;2024-02-28T04:03:18;4.60;99.90
15364;DHT22;7781;49.690;6.472;2024-02-28T04:05:48;4.60;99.90
15364;DHT22;7781;49.690;6.472;2024-02-28T04:08:17;4.50;99.90
15364;DHT22;7781;49.690;6.472;2024-02-28T04:10:47;4.60;99.90
15364;DHT22;7781;49.690;6.472;2024-02-28T04:13:18;4.50;99.90
15364;DHT22;7781;49.690;6.472;2024-02-28T04:15:47;4.40;99.90
15364;DHT22;7781;49.690;6.472;2024-02-28T04:18:16;4.40;99.90
15364;DHT22;7781;49.690;6.472;2024-02-28T04:20:49;4.40;99.90
15364;DHT22;7781;49.690;6.472;2024-02-28T04:23:17;4.40;99.90
15364;DHT22;7781;49.690;6.472;2024-02-28T04:25:46;4.20;99.90
15364;DHT22;7781;49.690;6.472;2024-02-28T04:28:14;4.10;99.90
15364;DHT22;7781;49.690;6.472;2024-02-28T04:30:47;4.10;99.90
15364;DHT22;7781;49.690;6.472;2024-02-28T04:33:16;4.10;99.90
15364;DHT22;7781;49.690;6.472;2024-02-28T04:35:48;4.20;99.90
15364;DHT22;7781;49.690;6.472;2024-02-28T04:38:18;4.20;99.90
15364;DHT22;7781;49.690;6.472;2024-02-28T04:40:46;4.20;99.90
15364;DHT22;7781;49.690;6.472;2024-02-28T04:43:16;4.20;99.90
15364;DHT22;7781;49.690;6.472;2024-02-28T04:45:45;4.30;99.90
15364;DHT22;7781;49.690;6.472;2024-02-28T04:48:13;4.30;99.90
15364;DHT22;7781;49.690;6.472;2024-02-28T04:50:43;4.30;99.90
15364;DHT22;7781;49.690;6.472;2024-02-28T04:53:14;4.40;99.90
15364;DHT22;7781;49.690;6.472;2024-02-28T04:55:43;4.40;99.90
15364;DHT22;7781;49.690;6.472;2024-02-28T04:58:12;4.40;99.90
15364;DHT22;7781;49.690;6.472;2024-02-28T05:00:42;4.40;99.90
15364;DHT22;7781;49.690;6.472;2024-02-28T05:03:10;4.40;99.90
15364;DHT22;7781;49.690;6.472;2024-02-28T05:05:42;4.40;99.90
15364;DHT22;7781;49.690;6.472;2024-02-28T05:08:14;4.40;99.90
15364;DHT22;7781;49.690;6.472;2024-02-28T05:10:43;4.40;99.90
15364;DHT22;7781;49.690;6.472;2024-02-28T05:13:13;4.50;99.90
15364;DHT22;7781;49.690;6.472;2024-02-28T05:15:42;4.40;99.90
15364;DHT22;7781;49.690;6.472;2024-02-28T05:18:11;4.30;99.90
15364;DHT22;7781;49.690;6.472;2024-02-28T05:20:40;4.30;99.90
15364;DHT22;7781;49.690;6.472;2024-02-28T05:23:09;4.30;99.90
15364;DHT22;7781;49.690;6.472;2024-02-28T05:25:40;4.30;99.90
15364;DHT22;7781;49.690;6.472;2024-02-28T05:28:10;4.30;99.90
15364;DHT22;7781;49.690;6.472;2024-02-28T05:30:40;4.30;99.90
15364;DHT22;7781;49.690;6.472;2024-02-28T05:33:14;4.40;99.90
15364;DHT22;7781;49.690;6.472;2024-02-28T05:35:45;4.30;99.90
15364;DHT22;7781;49.690;6.472;2024-02-28T05:38:14;4.30;99.90
15364;DHT22;7781;49.690;6.472;2024-02-28T05:40:44;4.30;99.90
15364;DHT22;7781;49.690;6.472;2024-02-28T05:43:13;4.30;99.90
15364;DHT22;7781;49.690;6.472;2024-02-28T05:45:42;4.30;99.90
15364;DHT22;7781;49.690;6.472;2024-02-28T05:48:12;4.30;99.90
15364;DHT22;7781;49.690;6.472;2024-02-28T05:50:41;4.30;99.90
15364;DHT22;7781;49.690;6.472;2024-02-28T05:53:10;4.30;99.90
15364;DHT22;7781;49.690;6.472;2024-02-28T05:55:38;4.30;99.90
15364;DHT22;7781;49.690;6.472;2024-02-28T05:58:09;4.30;99.90
15364;DHT22;7781;49.690;6.472;2024-02-28T06:00:40;4.30;99.90
15364;DHT22;7781;49.690;6.472;2024-02-28T06:03:08;4.30;99.90
15364;DHT22;7781;49.690;6.472;2024-02-28T06:05:37;4.20;99.90
15364;DHT22;7781;49.690;6.472;2024-02-28T06:08:09;4.20;99.90
15364;DHT22;7781;49.690;6.472;2024-02-28T06:10:38;4.20;99.90
15364;DHT22;7781;49.690;6.472;2024-02-28T06:13:10;4.20;99.90
15364;DHT22;7781;49.690;6.472;2024-02-28T06:15:39;4.20;99.90
15364;DHT22;7781;49.690;6.472;2024-02-28T06:18:08;4.10;99.90
15364;DHT22;7781;49.690;6.472;2024-02-28T06:20:37;4.20;99.90
15364;DHT22;7781;49.690;6.472;2024-02-28T06:23:06;4.20;99.90
15364;DHT22;7781;49.690;6.472;2024-02-28T06:25:45;4.20;99.90
15364;DHT22;7781;49.690;6.472;2024-02-28T06:28:15;4.30;99.90
15364;DHT22;7781;49.690;6.472;2024-02-28T06:30:44;4.30;99.90
15364;DHT22;7781;49.690;6.472;2024-02-28T06:33:13;4.30;99.90
15364;DHT22;7781;49.690;6.472;2024-02-28T06:35:44;4.30;99.90
15364;DHT22;7781;49.690;6.472;2024-02-28T06:38:14;4.30;99.90
15364;DHT22;7781;49.690;6.472;2024-02-28T06:40:42;4.20;99.90
15364;DHT22;7781;49.690;6.472;2024-02-28T06:43:10;4.20;99.90
15364;DHT22;7781;49.690;6.472;2024-02-28T06:45:40;4.20;99.90
15364;DHT22;7781;49.690;6.472;2024-02-28T06:48:09;4.20;99.90
15364;DHT22;7781;49.690;6.472;2024-02-28T06:50:38;4.20;99.90
15364;DHT22;7781;49.690;6.472;2024-02-28T06:53:07;4.10;99.90
15364;DHT22;7781;49.690;6.472;2024-02-28T06:55:36;4.10;99.90
15364;DHT22;7781;49.690;6.472;2024-02-28T06:58:05;4.10;99.90
15364;DHT22;7781;49.690;6.472;2024-02-28T07:00:33;4.10;99.90
15364;DHT22;7781;49.690;6.472;2024-02-28T07:03:04;4.10;99.90
15364;DHT22;7781;49.690;6.472;2024-02-28T07:05:33;4.10;99.90
15364;DHT22;7781;49.690;6.472;2024-02-28T07:08:01;4.10;99.90
15364;DHT22;7781;49.690;6.472;2024-02-28T07:10:30;4.10;99.90
15364;DHT22;7781;49.690;6.472;2024-02-28T07:12:58;4.10;99.90
15364;DHT22;7781;49.690;6.472;2024-02-28T07:15:27;4.10;99.90
15364;DHT22;7781;49.690;6.472;2024-02-28T07:17:56;4.10;99.90
15364;DHT22;7781;49.690;6.472;2024-02-28T07:20:25;4.10;99.90
15364;DHT22;7781;49.690;6.472;2024-02-28T07:22:54;4.10;99.90
15364;DHT22;7781;49.690;6.472;2024-02-28T07:25:23;4.20;99.90
15364;DHT22;7781;49.690;6.472;2024-02-28T07:27:51;4.20;99.90
15364;DHT22;7781;49.690;6.472;2024-02-28T07:30:21;4.10;99.90
15364;DHT22;7781;49.690;6.472;2024-02-28T07:32:51;4.20;99.90
15364;DHT22;7781;49.690;6.472;2024-02-28T07:35:20;4.10;99.90
15364;DHT22;7781;49.690;6.472;2024-02-28T07:37:52;4.10;99.90
15364;DHT22;7781;49.690;6.472;2024-02-28T07:40:21;4.20;99.90
15364;DHT22;7781;49.690;6.472;2024-02-28T07:42:49;4.20;99.90
15364;DHT22;7781;49.690;6.472;2024-02-28T07:45:17;4.20;99.90
15364;DHT22;7781;49.690;6.472;2024-02-28T07:47:46;4.20;99.90
15364;DHT22;7781;49.690;6.472;2024-02-28T07:50:15;4.20;99.90
15364;DHT22;7781;49.690;6.472;2024-02-28T07:52:44;4.20;99.90
15364;DHT22;7781;49.690;6.472;2024-02-28T07:55:14;4.10;99.90
15364;DHT22;7781;49.690;6.472;2024-02-28T07:57:44;4.10;99.90
15364;DHT22;7781;49.690;6.472;2024-02-28T08:00:13;4.10;99.90
15364;DHT22;7781;49.690;6.472;2024-02-28T08:02:43;4.10;99.90
15364;DHT22;7781;49.690;6.472;2024-02-28T08:05:15;4.10;99.90
15364;DHT22;7781;49.690;6.472;2024-02-28T08:07:45;4.10;99.90
15364;DHT22;7781;49.690;6.472;2024-02-28T08:10:16;4.10;99.90
15364;DHT22;7781;49.690;6.472;2024-02-28T08:12:45;4.10;99.90
15364;DHT22;7781;49.690;6.472;2024-02-28T08:15:13;4.10;99.90
15364;DHT22;7781;49.690;6.472;2024-02-28T08:17:43;4.10;99.90
15364;DHT22;7781;49.690;6.472;2024-02-28T08:20:12;4.10;99.90
15364;DHT22;7781;49.690;6.472;2024-02-28T08:22:43;4.10;99.90
15364;DHT22;7781;49.690;6.472;2024-02-28T08:25:12;4.10;99.90
15364;DHT22;7781;49.690;6.472;2024-02-28T08:27:42;4.10;99.90
15364;DHT22;7781;49.690;6.472;2024-02-28T08:30:11;4.10;99.90
15364;DHT22;7781;49.690;6.472;2024-02-28T08:32:41;4.10;99.90
15364;DHT22;7781;49.690;6.472;2024-02-28T08:35:10;4.20;99.90
15364;DHT22;7781;49.690;6.472;2024-02-28T08:37:38;4.20;99.90
15364;DHT22;7781;49.690;6.472;2024-02-28T08:40:08;4.30;99.90
15364;DHT22;7781;49.690;6.472;2024-02-28T08:42:37;4.20;99.90
15364;DHT22;7781;49.690;6.472;2024-02-28T08:45:10;4.30;99.90
15364;DHT22;7781;49.690;6.472;2024-02-28T08:47:38;4.40;99.90
15364;DHT22;7781;49.690;6.472;2024-02-28T08:50:08;4.50;99.90
15364;DHT22;7781;49.690;6.472;2024-02-28T08:52:37;4.50;99.90
15364;DHT22;7781;49.690;6.472;2024-02-28T08:55:06;4.60;99.90
15364;DHT22;7781;49.690;6.472;2024-02-28T08:57:34;4.60;99.90
15364;DHT22;7781;49.690;6.472;2024-02-28T09:00:04;4.60;99.90
15364;DHT22;7781;49.690;6.472;2024-02-28T09:02:37;4.70;99.90
15364;DHT22;7781;49.690;6.472;2024-02-28T09:05:06;4.70;99.90
15364;DHT22;7781;49.690;6.472;2024-02-28T09:07:36;4.70;99.90
15364;DHT22;7781;49.690;6.472;2024-02-28T09:10:05;4.80;99.90
15364;DHT22;7781;49.690;6.472;2024-02-28T09:12:34;4.90;99.90
15364;DHT22;7781;49.690;6.472;2024-02-28T09:15:04;4.90;99.90
15364;DHT22;7781;49.690;6.472;2024-02-28T09:17:33;4.90;99.90
15364;DHT22;7781;49.690;6.472;2024-02-28T09:20:03;5.00;99.90
15364;DHT22;7781;49.690;6.472;2024-02-28T09:22:34;4.90;99.90
15364;DHT22;7781;49.690;6.472;2024-02-28T09:25:04;5.00;99.90
15364;DHT22;7781;49.690;6.472;2024-02-28T09:27:35;5.00;99.90
15364;DHT22;7781;49.690;6.472;2024-02-28T09:30:05;5.10;99.90
15364;DHT22;7781;49.690;6.472;2024-02-28T09:32:35;5.20;99.90
15364;DHT22;7781;49.690;6.472;2024-02-28T09:35:08;5.10;99.90
15364;DHT22;7781;49.690;6.472;2024-02-28T09:37:37;5.10;99.90
15364;DHT22;7781;49.690;6.472;2024-02-28T09:40:09;5.20;99.90
15364;DHT22;7781;49.690;6.472;2024-02-28T09:42:38;5.20;99.90
15364;DHT22;7781;49.690;6.472;2024-02-28T09:45:10;5.20;99.90
15364;DHT22;7781;49.690;6.472;2024-02-28T09:47:40;5.20;99.90
15364;DHT22;7781;49.690;6.472;2024-02-28T09:50:11;5.20;99.90
15364;DHT22;7781;49.690;6.472;2024-02-28T09:52:40;5.30;99.90
15364;DHT22;7781;49.690;6.472;2024-02-28T09:55:15;5.40;99.90
15364;DHT22;7781;49.690;6.472;2024-02-28T09:57:47;5.30;99.90
15364;DHT22;7781;49.690;6.472;2024-02-28T10:00:19;5.20;99.90
15364;DHT22;7781;49.690;6.472;2024-02-28T10:02:50;5.10;99.90
15364;DHT22;7781;49.690;6.472;2024-02-28T10:05:20;5.10;99.90
15364;DHT22;7781;49.690;6.472;2024-02-28T10:07:53;5.20;99.90
15364;DHT22;7781;49.690;6.472;2024-02-28T10:10:22;5.20;99.90
15364;DHT22;7781;49.690;6.472;2024-02-28T10:12:55;5.30;99.90
15364;DHT22;7781;49.690;6.472;2024-02-28T10:15:26;5.20;99.90
15364;DHT22;7781;49.690;6.472;2024-02-28T10:17:55;5.20;99.90
15364;DHT22;7781;49.690;6.472;2024-02-28T10:20:25;5.30;99.90
15364;DHT22;7781;49.690;6.472;2024-02-28T10:22:54;5.30;99.90
15364;DHT22;7781;49.690;6.472;2024-02-28T10:25:25;5.40;99.90
15364;DHT22;7781;49.690;6.472;2024-02-28T10:28:00;5.50;99.90
15364;DHT22;7781;49.690;6.472;2024-02-28T10:30:29;5.50;99.90
15364;DHT22;7781;49.690;6.472;2024-02-28T10:32:58;5.50;99.90
15364;DHT22;7781;49.690;6.472;2024-02-28T10:35:28;5.50;99.90
15364;DHT22;7781;49.690;6.472;2024-02-28T10:37:56;5.50;99.90
15364;DHT22;7781;49.690;6.472;2024-02-28T10:40:25;5.50;99.90
15364;DHT22;7781;49.690;6.472;2024-02-28T10:42:57;5.40;99.90
15364;DHT22;7781;49.690;6.472;2024-02-28T10:45:29;5.40;99.90
15364;DHT22;7781;49.690;6.472;2024-02-28T10:48:20;5.50;99.90
15364;DHT22;7781;49.690;6.472;2024-02-28T10:50:50;5.40;99.90
15364;DHT22;7781;49.690;6.472;2024-02-28T10:53:22;5.50;99.90
15364;DHT22;7781;49.690;6.472;2024-02-28T10:55:55;5.50;99.90
15364;DHT22;7781;49.690;6.472;2024-02-28T10:58:27;5.50;99.90
15364;DHT22;7781;49.690;6.472;2024-02-28T11:00:58;5.60;99.90
15364;DHT22;7781;49.690;6.472;2024-02-28T11:03:26;5.60;99.90
15364;DHT22;7781;49.690;6.472;2024-02-28T11:05:56;5.70;99.90
15364;DHT22;7781;49.690;6.472;2024-02-28T11:08:29;5.80;99.90
15364;DHT22;7781;49.690;6.472;2024-02-28T11:11:03;5.90;99.90
15364;DHT22;7781;49.690;6.472;2024-02-28T11:13:33;5.90;99.90
15364;DHT22;7781;49.690;6.472;2024-02-28T11:16:09;6.00;99.90
15364;DHT22;7781;49.690;6.472;2024-02-28T11:18:48;6.00;99.90
15364;DHT22;7781;49.690;6.472;2024-02-28T11:21:23;6.00;99.90
15364;DHT22;7781;49.690;6.472;2024-02-28T11:23:52;6.00;99.90
15364;DHT22;7781;49.690;6.472;2024-02-28T11:26:21;6.10;99.90
15364;DHT22;7781;49.690;6.472;2024-02-28T11:28:49;6.10;99.90
15364;DHT22;7781;49.690;6.472;2024-02-28T11:31:19;6.20;99.90
15364;DHT22;7781;49.690;6.472;2024-02-28T11:33:47;6.20;99.90
15364;DHT22;7781;49.690;6.472;2024-02-28T11:36:16;6.30;99.90
15364;DHT22;7781;49.690;6.472;2024-02-28T11:38:50;6.30;99.90
15364;DHT22;7781;49.690;6.472;2024-02-28T11:41:25;6.20;99.90
15364;DHT22;7781;49.690;6.472;2024-02-28T11:43:54;6.20;99.90
15364;DHT22;7781;49.690;6.472;2024-02-28T11:46:24;6.20;99.90
15364;DHT22;7781;49.690;6.472;2024-02-28T11:48:53;6.00;99.90
15364;DHT22;7781;49.690;6.472;2024-02-28T11:51:23;6.00;99.90
15364;DHT22;7781;49.690;6.472;2024-02-28T11:53:55;5.90;99.90
15364;DHT22;7781;49.690;6.472;2024-02-28T11:56:24;5.80;99.90
15364;DHT22;7781;49.690;6.472;2024-02-28T11:58:54;5.80;99.90
15364;DHT22;7781;49.690;6.472;2024-02-28T12:01:36;6.00;99.90
15364;DHT22;7781;49.690;6.472;2024-02-28T12:04:05;6.10;99.90
15364;DHT22;7781;49.690;6.472;2024-02-28T12:06:34;6.20;99.90
15364;DHT22;7781;49.690;6.472;2024-02-28T12:09:07;6.30;99.90
15364;DHT22;7781;49.690;6.472;2024-02-28T12:11:37;6.30;99.90
15364;DHT22;7781;49.690;6.472;2024-02-28T12:14:07;6.20;99.90
15364;DHT22;7781;49.690;6.472;2024-02-28T12:16:38;6.10;99.90
15364;DHT22;7781;49.690;6.472;2024-02-28T12:19:08;6.20;99.90
15364;DHT22;7781;49.690;6.472;2024-02-28T12:21:37;6.30;99.90
15364;DHT22;7781;49.690;6.472;2024-02-28T12:24:10;6.30;99.90
15364;DHT22;7781;49.690;6.472;2024-02-28T12:26:39;6.40;99.90
15364;DHT22;7781;49.690;6.472;2024-02-28T12:29:08;6.30;99.90
15364;DHT22;7781;49.690;6.472;2024-02-28T12:31:38;6.10;99.90
15364;DHT22;7781;49.690;6.472;2024-02-28T12:34:07;6.20;99.90
15364;DHT22;7781;49.690;6.472;2024-02-28T12:36:35;6.00;99.90
15364;DHT22;7781;49.690;6.472;2024-02-28T12:39:06;6.00;99.90
15364;DHT22;7781;49.690;6.472;2024-02-28T12:41:41;6.30;99.90
15364;DHT22;7781;49.690;6.472;2024-02-28T12:44:09;6.60;99.90
15364;DHT22;7781;49.690;6.472;2024-02-28T12:46:38;6.80;99.90
15364;DHT22;7781;49.690;6.472;2024-02-28T12:49:07;6.70;99.90
15364;DHT22;7781;49.690;6.472;2024-02-28T12:51:39;6.70;99.90
15364;DHT22;7781;49.690;6.472;2024-02-28T12:54:08;6.90;99.90
15364;DHT22;7781;49.690;6.472;2024-02-28T12:56:37;7.00;99.90
15364;DHT22;7781;49.690;6.472;2024-02-28T12:59:08;7.10;99.90
15364;DHT22;7781;49.690;6.472;2024-02-28T13:01:39;7.40;99.90
15364;DHT22;7781;49.690;6.472;2024-02-28T13:04:09;7.60;99.90
15364;DHT22;7781;49.690;6.472;2024-02-28T13:06:38;7.90;99.90
15364;DHT22;7781;49.690;6.472;2024-02-28T13:09:07;8.10;99.90
15364;DHT22;7781;49.690;6.472;2024-02-28T13:11:39;8.00;99.90
15364;DHT22;7781;49.690;6.472;2024-02-28T13:14:10;8.30;99.90
15364;DHT22;7781;49.690;6.472;2024-02-28T13:16:41;8.70;99.90
15364;DHT22;7781;49.690;6.472;2024-02-28T13:19:12;9.10;99.90
15364;DHT22;7781;49.690;6.472;2024-02-28T13:21:42;9.20;99.90
15364;DHT22;7781;49.690;6.472;2024-02-28T13:24:10;9.20;99.90
15364;DHT22;7781;49.690;6.472;2024-02-28T13:26:42;9.50;99.90
15364;DHT22;7781;49.690;6.472;2024-02-28T13:29:12;9.60;99.90
15364;DHT22;7781;49.690;6.472;2024-02-28T13:31:40;9.70;99.90
15364;DHT22;7781;49.690;6.472;2024-02-28T13:34:10;9.70;99.90
15364;DHT22;7781;49.690;6.472;2024-02-28T13:36:40;9.70;99.90
15364;DHT22;7781;49.690;6.472;2024-02-28T13:39:10;9.60;99.90
15364;DHT22;7781;49.690;6.472;2024-02-28T13:41:39;9.80;99.90
15364;DHT22;7781;49.690;6.472;2024-02-28T13:44:08;9.90;99.90
15364;DHT22;7781;49.690;6.472;2024-02-28T13:46:42;10.00;99.90
15364;DHT22;7781;49.690;6.472;2024-02-28T13:49:10;10.00;99.90
15364;DHT22;7781;49.690;6.472;2024-02-28T13:51:40;10.10;99.90
15364;DHT22;7781;49.690;6.472;2024-02-28T13:54:10;10.10;99.90
15364;DHT22;7781;49.690;6.472;2024-02-28T13:56:39;10.40;99.90
15364;DHT22;7781;49.690;6.472;2024-02-28T13:59:07;10.50;99.90
15364;DHT22;7781;49.690;6.472;2024-02-28T14:01:36;10.60;99.90
15364;DHT22;7781;49.690;6.472;2024-02-28T14:04:09;10.70;99.90
15364;DHT22;7781;49.690;6.472;2024-02-28T14:06:37;11.00;99.90
15364;DHT22;7781;49.690;6.472;2024-02-28T14:09:07;11.10;99.90
15364;DHT22;7781;49.690;6.472;2024-02-28T14:11:39;11.30;99.90
15364;DHT22;7781;49.690;6.472;2024-02-28T14:14:10;11.10;99.90
15364;DHT22;7781;49.690;6.472;2024-02-28T14:16:42;11.00;99.90
15364;DHT22;7781;49.690;6.472;2024-02-28T14:19:12;11.00;99.90
15364;DHT22;7781;49.690;6.472;2024-02-28T14:21:40;10.90;99.90
15364;DHT22;7781;49.690;6.472;2024-02-28T14:24:13;10.90;99.90
15364;DHT22;7781;49.690;6.472;2024-02-28T14:26:46;11.00;99.90
15364;DHT22;7781;49.690;6.472;2024-02-28T14:29:17;10.80;99.90
15364;DHT22;7781;49.690;6.472;2024-02-28T14:31:46;10.80;99.90
15364;DHT22;7781;49.690;6.472;2024-02-28T14:34:18;10.50;99.90
15364;DHT22;7781;49.690;6.472;2024-02-28T14:36:47;10.40;99.90
15364;DHT22;7781;49.690;6.472;2024-02-28T14:39:16;10.40;99.90
15364;DHT22;7781;49.690;6.472;2024-02-28T14:41:44;10.40;99.90
15364;DHT22;7781;49.690;6.472;2024-02-28T14:44:13;10.50;99.90
15364;DHT22;7781;49.690;6.472;2024-02-28T14:46:43;10.30;99.90
15364;DHT22;7781;49.690;6.472;2024-02-28T14:49:13;10.50;99.90
15364;DHT22;7781;49.690;6.472;2024-02-28T14:51:45;10.70;99.90
15364;DHT22;7781;49.690;6.472;2024-02-28T14:54:15;10.50;99.90
15364;DHT22;7781;49.690;6.472;2024-02-28T14:56:46;10.40;99.90
15364;DHT22;7781;49.690;6.472;2024-02-28T14:59:15;10.30;99.90
15364;DHT22;7781;49.690;6.472;2024-02-28T15:01:44;10.30;99.90
15364;DHT22;7781;49.690;6.472;2024-02-28T15:04:13;10.20;99.90
15364;DHT22;7781;49.690;6.472;2024-02-28T15:06:44;9.70;99.90
15364;DHT22;7781;49.690;6.472;2024-02-28T15:09:12;9.60;99.90
15364;DHT22;7781;49.690;6.472;2024-02-28T15:11:41;9.50;99.90
15364;DHT22;7781;49.690;6.472;2024-02-28T15:14:09;9.30;99.90
15364;DHT22;7781;49.690;6.472;2024-02-28T15:16:37;8.90;99.90
15364;DHT22;7781;49.690;6.472;2024-02-28T15:19:05;8.80;99.90
15364;DHT22;7781;49.690;6.472;2024-02-28T15:21:34;8.90;99.90
15364;DHT22;7781;49.690;6.472;2024-02-28T15:24:05;8.90;99.90
15364;DHT22;7781;49.690;6.472;2024-02-28T15:26:33;9.00;99.90
15364;DHT22;7781;49.690;6.472;2024-02-28T15:29:14;9.10;99.90
15364;DHT22;7781;49.690;6.472;2024-02-28T15:31:42;9.00;99.90
15364;DHT22;7781;49.690;6.472;2024-02-28T15:34:11;9.00;99.90
15364;DHT22;7781;49.690;6.472;2024-02-28T15:36:39;9.00;99.90
15364;DHT22;7781;49.690;6.472;2024-02-28T15:39:09;9.10;99.90
15364;DHT22;7781;49.690;6.472;2024-02-28T15:41:37;9.10;99.90
15364;DHT22;7781;49.690;6.472;2024-02-28T15:44:09;8.90;99.90
15364;DHT22;7781;49.690;6.472;2024-02-28T15:46:38;8.90;99.90
15364;DHT22;7781;49.690;6.472;2024-02-28T15:49:07;8.80;99.90
15364;DHT22;7781;49.690;6.472;2024-02-28T15:51:38;8.60;99.90
15364;DHT22;7781;49.690;6.472;2024-02-28T15:54:08;8.60;99.90
15364;DHT22;7781;49.690;6.472;2024-02-28T15:56:36;8.50;99.90
15364;DHT22;7781;49.690;6.472;2024-02-28T15:59:07;8.50;99.90
15364;DHT22;7781;49.690;6.472;2024-02-28T16:01:37;8.30;99.90
15364;DHT22;7781;49.690;6.472;2024-02-28T16:04:06;8.20;99.90
15364;DHT22;7781;49.690;6.472;2024-02-28T16:06:34;8.20;99.90
15364;DHT22;7781;49.690;6.472;2024-02-28T16:09:06;8.00;99.90
15364;DHT22;7781;49.690;6.472;2024-02-28T16:11:38;7.90;99.90
15364;DHT22;7781;49.690;6.472;2024-02-28T16:14:08;7.90;99.90
15364;DHT22;7781;49.690;6.472;2024-02-28T16:16:36;7.80;99.90